Time;durP1;ratioP1;P1;durP2;ratioP2;P2;SDS_P1;SDS_P2;PMS_P1;PMS_P2;Temp;Humidity;BMP_temperature;BMP_pressure;BME280_temperature;BME280_humidity;BME280_pressure;Samples;Min_cycle;Max_cycle;Signal;HPM_P1;HPM_P2
2022/09/10 00:01:15;;;;;;;3.95;3.10;;;27.50;56.30;;;;;;5012410;28;20034;-71
2022/09/10 00:03:42;;;;;;;2.88;2.45;;;27.50;56.40;;;;;;5009873;28;20125;-70
2022/09/10 00:06:09;;;;;;;5.20;3.40;;;27.50;56.50;;;;;;5012230;28;20037;-71
2022/09/10 00:08:37;;;;;;;7.00;2.50;;;27.50;56.50;;;;;;5011463;28;20049;-71
2022/09/10 00:11:08;;;;;;;3.85;2.95;;;27.40;56.50;;;;;;5011434;28;20584;-71
2022/09/10 00:13:37;;;;;;;3.78;2.58;;;27.40;56.50;;;;;;5011961;28;20042;-71
2022/09/10 00:16:06;;;;;;;4.40;2.88;;;27.40;56.50;;;;;;5011945;28;20034;-71
2022/09/10 00:18:33;;;;;;;4.43;2.70;;;27.50;56.40;;;;;;5012123;28;20422;-71
2022/09/10 00:21:03;;;;;;;2.58;2.38;;;27.50;56.40;;;;;;5011643;28;20544;-71
2022/09/10 00:23:29;;;;;;;2.90;2.63;;;27.50;56.40;;;;;;5011243;28;20034;-70
2022/09/10 00:25:56;;;;;;;3.35;2.20;;;27.60;56.40;;;;;;5011101;28;20034;-71
2022/09/10 00:28:26;;;;;;;4.47;2.67;;;27.40;56.40;;;;;;5011296;28;20033;-71
2022/09/10 00:30:54;;;;;;;4.10;2.63;;;27.60;56.30;;;;;;5011538;28;20021;-71
2022/09/10 00:33:21;;;;;;;3.72;2.75;;;27.50;56.40;;;;;;5010824;28;20451;-71
2022/09/10 00:35:48;;;;;;;3.50;2.63;;;27.50;56.40;;;;;;5009785;28;20038;-71
2022/09/10 00:38:17;;;;;;;3.17;2.78;;;27.40;56.40;;;;;;5010895;28;20026;-71
2022/09/10 00:40:43;;;;;;;4.07;2.47;;;27.50;56.40;;;;;;5010964;28;20100;-71
2022/09/10 00:43:19;;;;;;;2.72;2.30;;;27.50;56.30;;;;;;5010755;28;20030;-71
2022/09/10 00:45:49;;;;;;;4.80;2.63;;;27.50;56.40;;;;;;5009668;28;20483;-69
2022/09/10 00:48:21;;;;;;;3.03;2.60;;;27.50;56.40;;;;;;5010639;28;20510;-71
2022/09/10 00:50:50;;;;;;;2.63;2.42;;;27.40;56.40;;;;;;5009817;28;20066;-71
2022/09/10 00:53:21;;;;;;;4.22;2.25;;;27.50;56.40;;;;;;5010513;28;20060;-71
2022/09/10 00:55:50;;;;;;;3.80;2.90;;;27.50;56.40;;;;;;5010703;28;20104;-71
2022/09/10 00:58:18;;;;;;;3.05;2.47;;;27.40;56.40;;;;;;5010820;28;20384;-71
2022/09/10 01:00:44;;;;;;;2.72;2.30;;;27.40;56.40;;;;;;5008351;28;20438;-71
2022/09/10 01:03:14;;;;;;;4.13;2.80;;;27.40;56.40;;;;;;5010021;28;20030;-71
2022/09/10 01:05:44;;;;;;;3.20;2.78;;;27.40;56.50;;;;;;5010006;28;20046;-71
2022/09/10 01:08:14;;;;;;;6.10;2.85;;;27.40;56.60;;;;;;5009359;28;20125;-71
2022/09/10 01:11:07;;;;;;;3.10;2.35;;;27.30;56.50;;;;;;5009715;28;20026;-72
2022/09/10 01:13:52;;;;;;;2.90;2.50;;;27.40;56.50;;;;;;5010519;28;20474;-71
2022/09/10 01:16:30;;;;;;;2.55;2.17;;;27.30;56.50;;;;;;5009869;28;20440;-70
2022/09/10 01:19:25;;;;;;;3.50;2.25;;;27.40;56.50;;;;;;5009999;28;20038;-71
2022/09/10 01:22:02;;;;;;;2.63;2.40;;;27.30;56.60;;;;;;4988759;28;20054;-70
2022/09/10 01:24:55;;;;;;;3.13;2.42;;;27.30;56.50;;;;;;5005333;28;20034;-71
2022/09/10 01:27:46;;;;;;;2.50;2.30;;;27.20;56.50;;;;;;4972720;28;20046;-71
2022/09/10 01:30:19;;;;;;;2.35;2.00;;;27.20;56.50;;;;;;4988478;28;20042;-71
2022/09/10 01:33:05;;;;;;;2.50;2.30;;;27.30;56.50;;;;;;4972614;28;20141;-71
2022/09/10 01:36:00;;;;;;;4.90;2.47;;;27.30;56.60;;;;;;5004936;28;20042;-71
2022/09/10 01:38:35;;;;;;;2.63;2.03;;;27.20;56.50;;;;;;4975993;28;20850;-71
2022/09/10 01:41:03;;;;;;;4.47;2.90;;;27.30;56.70;;;;;;4975966;28;20081;-71
2022/09/10 01:43:34;;;;;;;2.55;2.30;;;27.30;56.70;;;;;;4992166;28;20031;-71
2022/09/10 01:46:25;;;;;;;5.10;2.30;;;27.30;56.70;;;;;;4992131;28;20120;-71
2022/09/10 01:49:12;;;;;;;4.82;2.00;;;27.40;56.60;;;;;;4991996;28;20070;-71
2022/09/10 01:51:51;;;;;;;3.40;2.17;;;27.40;56.60;;;;;;4991987;28;20042;-71
2022/09/10 01:54:29;;;;;;;3.75;2.75;;;27.30;56.70;;;;;;4991762;28;20488;-71
2022/09/10 01:57:02;;;;;;;3.33;3.03;;;27.40;56.70;;;;;;4991464;28;20427;-72
2022/09/10 01:59:36;;;;;;;2.63;2.30;;;27.30;56.60;;;;;;5039706;28;20303;-71
2022/09/10 02:02:35;;;;;;;3.20;2.33;;;27.40;56.60;;;;;;5012572;28;20069;-71
2022/09/10 02:05:05;;;;;;;2.08;1.98;;;27.40;56.60;;;;;;4975848;28;20101;-71
2022/09/10 02:07:34;;;;;;;3.25;2.22;;;27.40;56.60;;;;;;5008642;28;20053;-71
2022/09/10 02:10:02;;;;;;;3.88;2.40;;;27.50;56.50;;;;;;4992435;28;20084;-71
2022/09/10 02:12:33;;;;;;;3.40;1.92;;;27.50;56.50;;;;;;4975674;28;20473;-71
2022/09/10 02:15:25;;;;;;;2.42;2.20;;;27.50;56.50;;;;;;4991983;28;20077;-71
2022/09/10 02:18:05;;;;;;;2.30;2.08;;;27.30;56.50;;;;;;5008431;28;20046;-71
2022/09/10 02:20:31;;;;;;;3.65;2.92;;;27.40;56.50;;;;;;4991630;28;20455;-72
2022/09/10 02:22:58;;;;;;;2.38;1.92;;;27.30;56.50;;;;;;4990881;28;20038;-71
2022/09/10 02:25:30;;;;;;;1.70;1.60;;;27.30;56.50;;;;;;4974991;28;20121;-72
2022/09/10 02:27:57;;;;;;;2.72;2.28;;;27.30;56.50;;;;;;4991047;28;20046;-71
2022/09/10 02:30:23;;;;;;;2.60;2.40;;;27.20;56.50;;;;;;4975253;28;20104;-71
2022/09/10 02:32:50;;;;;;;2.75;2.30;;;27.30;56.30;;;;;;4975349;28;20068;-71
2022/09/10 02:35:16;;;;;;;2.90;2.40;;;27.30;56.50;;;;;;4975459;28;20054;-71
2022/09/10 02:37:45;;;;;;;3.17;2.42;;;27.40;56.70;;;;;;4975283;28;20034;-71
2022/09/10 02:40:12;;;;;;;2.38;2.17;;;27.40;56.70;;;;;;4991697;28;20038;-71
2022/09/10 02:42:38;;;;;;;4.30;2.10;;;27.30;56.60;;;;;;4993768;28;20080;-71
2022/09/10 02:45:05;;;;;;;2.67;2.15;;;27.20;56.50;;;;;;4975462;28;20050;-71
2022/09/10 02:47:31;;;;;;;4.30;2.40;;;27.30;56.50;;;;;;4993733;28;20122;-71
2022/09/10 02:50:00;;;;;;;2.70;2.05;;;27.30;56.50;;;;;;4994128;28;20112;-71
2022/09/10 02:52:28;;;;;;;2.42;2.10;;;27.30;56.50;;;;;;4976395;28;20046;-71
2022/09/10 02:54:55;;;;;;;2.28;2.10;;;27.30;56.50;;;;;;4993824;28;20038;-71
2022/09/10 02:57:21;;;;;;;5.57;2.03;;;27.30;56.40;;;;;;4991413;28;20392;-71
2022/09/10 02:59:47;;;;;;;3.17;2.17;;;27.20;56.50;;;;;;4998108;28;20099;-71
2022/09/10 03:02:13;;;;;;;2.28;2.03;;;27.20;56.60;;;;;;5011985;28;20030;-71
2022/09/10 03:04:39;;;;;;;2.83;2.30;;;27.20;56.70;;;;;;4993560;28;20160;-71
2022/09/10 03:07:05;;;;;;;2.85;2.15;;;27.20;56.70;;;;;;5013528;28;20038;-71
2022/09/10 03:09:34;;;;;;;2.45;2.25;;;27.30;56.60;;;;;;5011995;28;20038;-71
2022/09/10 03:12:00;;;;;;;1.92;1.80;;;27.20;56.60;;;;;;5012057;28;20044;-71
2022/09/10 03:14:29;;;;;;;3.20;2.05;;;27.20;56.60;;;;;;5013220;28;20033;-71
2022/09/10 03:16:57;;;;;;;2.65;2.17;;;27.30;56.60;;;;;;5010773;28;20065;-71
2022/09/10 03:19:24;;;;;;;2.60;2.10;;;27.30;56.50;;;;;;5013389;28;20060;-71
2022/09/10 03:21:51;;;;;;;2.50;2.30;;;27.30;56.50;;;;;;5011752;28;20416;-71
2022/09/10 03:24:18;;;;;;;2.67;2.20;;;27.20;56.60;;;;;;5013127;28;20026;-71
2022/09/10 03:26:45;;;;;;;3.03;2.13;;;27.30;56.50;;;;;;5011508;28;20033;-71
2022/09/10 03:29:14;;;;;;;2.00;1.90;;;27.20;56.50;;;;;;5013033;28;20116;-70
2022/09/10 03:31:41;;;;;;;2.22;2.00;;;27.40;56.50;;;;;;4995134;28;20096;-71
2022/09/10 03:34:09;;;;;;;3.08;2.03;;;27.20;56.50;;;;;;5012996;28;20410;-71
2022/09/10 03:36:36;;;;;;;2.92;1.90;;;27.30;56.60;;;;;;5011313;28;20037;-71
2022/09/10 03:39:04;;;;;;;2.60;2.40;;;27.40;56.50;;;;;;5011424;28;20065;-71
2022/09/10 03:41:31;;;;;;;2.22;2.08;;;27.30;56.50;;;;;;5012547;28;20038;-71
2022/09/10 03:43:58;;;;;;;2.40;2.20;;;27.30;56.40;;;;;;5012762;28;20026;-71
2022/09/10 03:46:25;;;;;;;3.83;2.35;;;27.30;56.50;;;;;;5009703;28;20038;-71
2022/09/10 03:48:52;;;;;;;2.35;2.15;;;27.20;56.40;;;;;;4993320;28;20364;-70
2022/09/10 03:51:22;;;;;;;5.13;1.95;;;27.30;56.40;;;;;;4992943;28;20038;-71
2022/09/10 03:53:48;;;;;;;4.80;2.63;;;27.30;56.40;;;;;;5008998;28;20038;-71
2022/09/10 03:56:18;;;;;;;4.03;2.20;;;27.40;56.40;;;;;;4993325;28;20839;-72
2022/09/10 03:58:45;;;;;;;2.53;2.30;;;27.30;56.40;;;;;;4959373;28;20101;-73
2022/09/10 04:01:12;;;;;;;4.82;2.50;;;27.10;56.40;;;;;;4973965;28;20049;-72
2022/09/10 04:03:42;;;;;;;2.85;2.20;;;27.20;56.30;;;;;;4973890;28;20042;-73
2022/09/10 04:06:10;;;;;;;6.22;2.35;;;27.20;56.40;;;;;;5006151;28;20034;-72
2022/09/10 04:08:37;;;;;;;2.97;2.20;;;27.10;56.30;;;;;;4989967;28;20080;-71
2022/09/10 04:11:06;;;;;;;1.20;1.05;;;27.20;56.60;;;;;;4973889;28;20038;-68
2022/09/10 04:13:32;;;;;;;112.95;66.30;;;27.30;57.90;;;;;;4989982;28;20042;-71
2022/09/10 04:15:59;;;;;;;18.45;9.70;;;27.30;58.20;;;;;;4973575;28;20046;-69
2022/09/10 04:18:27;;;;;;;32.90;13.85;;;27.50;59.50;;;;;;5009859;28;20100;-73
2022/09/10 04:20:55;;;;;;;27.80;12.65;;;27.60;58.60;;;;;;5011956;28;20438;-72
2022/09/10 04:23:21;;;;;;;11.77;6.35;;;27.80;59.30;;;;;;5010748;28;20026;-72
2022/09/10 04:25:48;;;;;;;11.07;5.18;;;27.90;57.20;;;;;;5025879;28;20088;-72
2022/09/10 04:28:15;;;;;;;8.48;5.32;;;28.00;57.30;;;;;;5010523;28;20076;-72
2022/09/10 04:30:43;;;;;;;16.15;5.03;;;28.00;57.80;;;;;;4994463;28;20149;-72
2022/09/10 04:33:10;;;;;;;39.63;8.88;;;28.20;58.40;;;;;;5011776;28;20036;-70
2022/09/10 04:35:38;;;;;;;6.50;2.97;;;28.30;65.20;;;;;;5025761;28;20049;-72
2022/09/10 04:38:06;;;;;;;13.05;4.30;;;28.30;58.80;;;;;;5010481;28;20045;-71
2022/09/10 04:40:36;;;;;;;6.35;3.45;;;28.20;62.30;;;;;;5010221;28;20041;-71
2022/09/10 04:43:03;;;;;;;11.82;3.65;;;28.20;59.00;;;;;;5010583;28;20038;-73
2022/09/10 04:45:31;;;;;;;21.35;6.25;;;28.30;57.60;;;;;;5010246;28;20113;-72
2022/09/10 04:47:59;;;;;;;14.20;3.17;;;28.20;58.40;;;;;;5010344;28;20030;-72
2022/09/10 04:50:25;;;;;;;3.28;2.00;;;28.20;57.70;;;;;;5010530;28;20180;-71
2022/09/10 04:53:12;;;;;;;19.63;5.25;;;28.30;57.90;;;;;;5010200;28;20495;-71
2022/09/10 04:55:41;;;;;;;17.25;8.18;;;28.30;58.80;;;;;;5007094;28;20394;-70
2022/09/10 04:58:08;;;;;;;27.90;6.85;;;28.20;61.90;;;;;;5010014;28;20402;-71
2022/09/10 05:00:35;;;;;;;14.40;5.47;;;28.40;61.40;;;;;;5010384;28;20072;-70
2022/09/10 05:03:03;;;;;;;5.97;4.10;;;28.30;60.90;;;;;;5011244;28;20029;-71
2022/09/10 05:05:29;;;;;;;5.00;3.50;;;28.30;57.40;;;;;;5009943;28;20041;-70
2022/09/10 05:07:56;;;;;;;5.35;2.97;;;28.20;56.80;;;;;;5009642;28;20367;-71
2022/09/10 05:10:23;;;;;;;4.40;3.33;;;28.20;55.90;;;;;;5010736;28;20116;-71
2022/09/10 05:12:49;;;;;;;4.57;2.65;;;28.20;55.60;;;;;;5012789;28;20041;-72
2022/09/10 05:15:15;;;;;;;8.48;3.20;;;28.10;54.80;;;;;;4997524;28;20080;-70
2022/09/10 05:17:41;;;;;;;5.43;2.60;;;28.20;55.30;;;;;;5012532;28;20086;-69
2022/09/10 05:20:09;;;;;;;3.53;1.55;;;28.20;56.40;;;;;;5013384;28;20483;-73
2022/09/10 05:22:41;;;;;;;2.03;1.38;;;28.20;56.80;;;;;;4997364;28;20385;-72
2022/09/10 05:25:08;;;;;;;3.28;2.20;;;28.20;56.60;;;;;;5013981;28;20065;-71
2022/09/10 05:27:35;;;;;;;2.90;1.10;;;28.20;57.10;;;;;;5013377;28;20030;-72
2022/09/10 05:30:01;;;;;;;1.00;1.00;;;28.20;56.40;;;;;;5029060;28;20052;-71
2022/09/10 05:32:31;;;;;;;2.75;1.80;;;28.20;57.60;;;;;;5015313;28;20473;-71
2022/09/10 05:34:58;;;;;;;2.75;2.45;;;28.10;56.30;;;;;;4998795;28;20029;-71
2022/09/10 05:37:24;;;;;;;1.90;1.80;;;28.10;56.00;;;;;;5031621;28;20517;-71
2022/09/10 05:39:51;;;;;;;2.97;2.28;;;28.00;56.20;;;;;;5031307;28;20324;-70
2022/09/10 05:42:17;;;;;;;3.47;3.10;;;28.00;56.50;;;;;;5014711;28;20049;-70
2022/09/10 05:44:44;;;;;;;3.55;2.78;;;28.00;57.50;;;;;;5015163;28;20030;-72
2022/09/10 05:47:09;;;;;;;4.22;2.92;;;28.00;56.60;;;;;;5031225;28;20548;-68
2022/09/10 05:49:36;;;;;;;7.13;2.97;;;27.90;55.80;;;;;;5031289;28;20107;-69
2022/09/10 05:52:02;;;;;;;5.82;3.05;;;28.10;56.10;;;;;;5030690;28;20091;-69
2022/09/10 05:54:28;;;;;;;5.13;2.95;;;28.10;58.60;;;;;;5014200;28;20080;-68
2022/09/10 05:56:57;;;;;;;6.32;2.80;;;27.90;56.80;;;;;;5014191;28;20482;-70
2022/09/10 05:59:23;;;;;;;3.22;2.92;;;28.00;57.50;;;;;;4997555;28;20049;-68
2022/09/10 06:01:51;;;;;;;5.30;3.15;;;27.90;56.60;;;;;;5014087;28;20033;-71
2022/09/10 06:04:19;;;;;;;6.22;3.47;;;27.90;56.70;;;;;;4998184;28;20045;-69
2022/09/10 06:06:46;;;;;;;6.18;3.75;;;27.90;56.70;;;;;;5027505;28;20042;-69
2022/09/10 06:09:13;;;;;;;4.15;3.72;;;27.90;56.30;;;;;;5011865;28;20038;-68
2022/09/10 06:11:52;;;;;;;5.82;4.00;;;28.00;56.70;;;;;;5010015;28;20044;-69
2022/09/10 06:14:19;;;;;;;4.80;3.80;;;28.10;57.20;;;;;;5011880;28;20052;-68
2022/09/10 06:16:45;;;;;;;7.35;4.20;;;28.00;57.00;;;;;;5009574;28;20038;-67
2022/09/10 06:19:11;;;;;;;3.67;3.10;;;27.90;56.70;;;;;;5012781;28;20498;-68
2022/09/10 06:21:38;;;;;;;5.95;3.78;;;27.90;57.20;;;;;;5010499;28;20034;-68
2022/09/10 06:24:04;;;;;;;4.90;3.67;;;27.80;56.50;;;;;;4992213;28;20049;-68
2022/09/10 06:26:35;;;;;;;4.35;3.47;;;27.80;56.40;;;;;;5011588;28;20053;-68
2022/09/10 06:29:07;;;;;;;5.70;3.72;;;27.80;56.50;;;;;;4994938;28;20026;-69
2022/09/10 06:31:33;;;;;;;5.93;4.00;;;27.80;56.40;;;;;;5011988;28;20026;-68
2022/09/10 06:34:01;;;;;;;4.13;3.75;;;27.80;56.90;;;;;;5009206;28;20132;-69
2022/09/10 06:36:29;;;;;;;5.63;4.05;;;27.70;57.00;;;;;;4993043;28;20061;-68
2022/09/10 06:38:56;;;;;;;4.50;3.67;;;27.90;57.50;;;;;;5010210;28;20085;-69
2022/09/10 06:41:23;;;;;;;8.45;4.22;;;27.70;57.70;;;;;;5011231;28;20045;-70
2022/09/10 06:43:54;;;;;;;8.60;4.43;;;27.80;57.60;;;;;;4994017;28;20204;-68
2022/09/10 06:46:32;;;;;;;5.15;4.43;;;27.80;57.20;;;;;;4993512;28;20084;-70
2022/09/10 06:49:20;;;;;;;4.80;4.30;;;27.80;56.70;;;;;;5027461;28;20406;-68
2022/09/10 06:51:50;;;;;;;5.47;3.97;;;27.70;57.00;;;;;;5014860;28;20073;-68
2022/09/10 06:54:17;;;;;;;4.90;3.47;;;27.70;57.20;;;;;;5011117;28;20050;-69
2022/09/10 06:56:45;;;;;;;6.43;3.90;;;27.80;57.10;;;;;;4994585;28;20034;-70
2022/09/10 06:59:17;;;;;;;6.35;4.05;;;27.70;56.80;;;;;;4992772;28;20058;-73
2022/09/10 07:01:46;;;;;;;12.27;4.97;;;27.60;57.50;;;;;;5025311;28;20088;-73
2022/09/10 07:04:13;;;;;;;5.40;4.65;;;27.70;57.20;;;;;;4995134;28;20053;-72
2022/09/10 07:06:40;;;;;;;5.88;3.67;;;27.80;56.60;;;;;;5011925;28;20038;-71
2022/09/10 07:09:13;;;;;;;6.03;4.25;;;27.90;57.20;;;;;;5011916;28;20042;-70
2022/09/10 07:11:53;;;;;;;6.90;4.18;;;27.80;56.60;;;;;;5011863;28;20634;-74
2022/09/10 07:14:19;;;;;;;7.68;4.57;;;27.80;56.90;;;;;;5013563;28;20072;-71
2022/09/10 07:16:46;;;;;;;6.30;3.95;;;27.70;56.80;;;;;;5012296;28;20085;-72
2022/09/10 07:19:13;;;;;;;9.82;4.22;;;27.80;56.90;;;;;;5011796;28;20030;-73
2022/09/10 07:21:43;;;;;;;4.10;3.70;;;27.70;56.10;;;;;;4995548;28;20038;-74
2022/09/10 07:24:13;;;;;;;5.25;3.35;;;27.80;56.80;;;;;;4991892;28;20034;-73
2022/09/10 07:26:45;;;;;;;5.75;3.60;;;27.70;56.90;;;;;;5012483;28;20044;-73
2022/09/10 07:29:12;;;;;;;5.13;3.90;;;27.80;56.80;;;;;;5007793;28;20042;-74
2022/09/10 07:31:40;;;;;;;7.00;4.85;;;27.90;57.00;;;;;;5008483;28;20027;-73
2022/09/10 07:34:11;;;;;;;4.88;4.30;;;28.00;57.20;;;;;;4991008;28;20061;-76
2022/09/10 07:36:37;;;;;;;5.68;3.53;;;27.80;56.40;;;;;;4993253;28;20030;-72
2022/09/10 07:39:04;;;;;;;6.28;4.00;;;27.90;56.40;;;;;;5008230;28;20057;-74
2022/09/10 07:41:36;;;;;;;18.92;3.10;;;27.80;56.60;;;;;;4992109;28;20105;-75
2022/09/10 07:44:05;;;;;;;5.28;3.53;;;27.90;57.10;;;;;;5010200;28;20065;-74
2022/09/10 07:46:37;;;;;;;4.93;3.70;;;27.90;56.70;;;;;;4994664;28;20037;-74
2022/09/10 07:49:08;;;;;;;4.88;3.08;;;27.90;56.00;;;;;;5007555;28;20069;-75
2022/09/10 07:51:34;;;;;;;6.88;3.70;;;27.90;56.30;;;;;;5025711;28;20046;-73
2022/09/10 07:54:02;;;;;;;3.90;3.42;;;27.90;55.90;;;;;;4995199;28;20038;-75
2022/09/10 07:56:36;;;;;;;4.20;3.90;;;27.80;55.80;;;;;;5010728;28;20433;-74
2022/09/10 07:59:05;;;;;;;7.05;3.03;;;27.80;56.10;;;;;;4995396;28;20410;-74
2022/09/10 08:01:40;;;;;;;4.50;3.35;;;28.00;56.70;;;;;;4976586;28;20491;-72
2022/09/10 08:04:06;;;;;;;7.88;3.97;;;27.80;56.30;;;;;;5022944;28;20069;-73
2022/09/10 08:06:35;;;;;;;7.20;4.00;;;28.00;56.60;;;;;;5013185;28;20041;-73
2022/09/10 08:09:06;;;;;;;6.47;3.17;;;27.80;56.50;;;;;;5013191;28;20038;-75
2022/09/10 08:11:34;;;;;;;4.40;3.40;;;27.90;55.20;;;;;;4979776;28;20042;-75
2022/09/10 08:14:00;;;;;;;3.92;3.25;;;28.00;57.30;;;;;;5012913;28;20486;-73
2022/09/10 08:16:28;;;;;;;11.35;9.40;;;28.00;57.40;;;;;;5012934;28;20041;-75
2022/09/10 08:18:59;;;;;;;2.65;2.45;;;28.00;57.00;;;;;;5012874;28;20512;-74
2022/09/10 08:21:29;;;;;;;1.55;1.45;;;27.90;57.10;;;;;;5011972;28;20025;-74
2022/09/10 08:23:57;;;;;;;3.58;3.25;;;28.10;57.50;;;;;;5012520;28;20049;-75
2022/09/10 08:26:25;;;;;;;2.88;2.63;;;28.00;65.40;;;;;;5012460;28;20032;-76
2022/09/10 08:28:54;;;;;;;6.93;2.85;;;28.00;66.30;;;;;;4989499;28;20042;-74
2022/09/10 08:31:23;;;;;;;5.53;2.70;;;28.10;62.40;;;;;;5005882;28;20061;-75
2022/09/10 08:33:55;;;;;;;4.60;2.60;;;28.10;59.10;;;;;;4989572;28;20050;-76
2022/09/10 08:36:24;;;;;;;5.07;2.65;;;28.10;60.30;;;;;;4973474;28;20168;-74
2022/09/10 08:38:51;;;;;;;2.45;2.03;;;28.10;58.10;;;;;;4973404;28;20344;-74
2022/09/10 08:41:20;;;;;;;6.63;2.50;;;28.10;58.50;;;;;;4989403;28;20031;-73
2022/09/10 08:44:26;;;;;;;4.07;2.60;;;28.10;58.50;;;;;;4989405;28;20043;-73
2022/09/10 08:47:12;;;;;;;5.75;2.20;;;28.00;59.80;;;;;;4949599;29;20114;-77
2022/09/10 08:49:52;;;;;;;6.28;2.20;;;28.10;58.10;;;;;;4944514;29;20044;-73
2022/09/10 08:52:30;;;;;;;2.63;2.30;;;28.00;57.30;;;;;;4928337;29;20036;-73
2022/09/10 08:55:00;;;;;;;8.27;2.97;;;28.00;56.30;;;;;;4944691;29;20113;-72
2022/09/10 08:57:34;;;;;;;8.65;3.13;;;28.30;61.20;;;;;;4931591;29;20472;-73
2022/09/10 09:00:02;;;;;;;4.00;2.47;;;28.30;58.20;;;;;;4921226;29;20086;-72
2022/09/10 09:03:00;;;;;;;4.22;2.92;;;28.30;59.60;;;;;;4944605;29;20414;-74
2022/09/10 09:05:27;;;;;;;3.22;2.47;;;28.40;57.90;;;;;;4928876;29;20087;-76
2022/09/10 09:07:58;;;;;;;5.30;2.38;;;28.30;57.90;;;;;;4947018;29;20051;-76
2022/09/10 09:10:57;;;;;;;4.80;2.20;;;28.40;58.10;;;;;;4931309;29;20058;-74
2022/09/10 09:13:41;;;;;;;2.17;1.92;;;28.50;57.30;;;;;;4931520;29;20456;-80
2022/09/10 09:16:32;;;;;;;5.53;2.08;;;28.40;57.60;;;;;;4932161;29;20043;-73
2022/09/10 09:19:22;;;;;;;2.08;1.88;;;28.30;57.60;;;;;;4929157;29;20172;-73
2022/09/10 09:21:55;;;;;;;3.08;1.77;;;28.40;57.80;;;;;;4931057;29;20105;-74
2022/09/10 09:24:43;;;;;;;2.65;1.83;;;28.40;57.90;;;;;;4963493;28;20418;-73
2022/09/10 09:27:17;;;;;;;5.15;2.35;;;28.40;56.90;;;;;;4966340;28;20047;-73
2022/09/10 09:30:00;;;;;;;4.65;2.00;;;28.40;55.50;;;;;;4961502;28;20031;-72
2022/09/10 09:32:32;;;;;;;3.67;1.98;;;28.50;56.10;;;;;;4985109;28;20053;-73
2022/09/10 09:35:18;;;;;;;1.05;1.05;;;28.60;55.70;;;;;;5008002;28;20065;-71
2022/09/10 09:37:49;;;;;;;2.97;2.03;;;28.50;57.20;;;;;;5021290;28;20044;-72
2022/09/10 09:40:36;;;;;;;2.72;2.03;;;28.50;57.00;;;;;;5045647;28;20065;-70
2022/09/10 09:43:15;;;;;;;2.97;1.92;;;28.40;56.90;;;;;;5039529;28;20128;-74
2022/09/10 09:45:42;;;;;;;6.85;1.83;;;28.50;56.30;;;;;;5008595;28;20429;-72
2022/09/10 09:48:14;;;;;;;2.92;1.63;;;28.50;56.20;;;;;;5009060;28;20112;-71
2022/09/10 09:50:45;;;;;;;2.42;1.52;;;28.50;56.50;;;;;;5008923;28;20044;-70
2022/09/10 09:53:21;;;;;;;3.47;2.10;;;28.50;55.10;;;;;;5025242;28;20053;-75
2022/09/10 09:55:59;;;;;;;3.65;2.30;;;28.50;55.90;;;;;;5024448;28;20052;-74
2022/09/10 09:58:27;;;;;;;1.80;1.70;;;28.50;55.80;;;;;;5026512;28;20053;-76
2022/09/10 10:01:04;;;;;;;6.80;2.67;;;28.60;58.20;;;;;;5028438;28;20635;-73
2022/09/10 10:03:51;;;;;;;3.10;1.63;;;28.60;58.40;;;;;;5028382;28;20073;-73
2022/09/10 10:06:21;;;;;;;2.75;2.53;;;28.80;58.00;;;;;;5028429;28;20043;-73
2022/09/10 10:09:05;;;;;;;3.75;1.45;;;28.70;56.50;;;;;;5020124;28;20125;-74
2022/09/10 10:11:56;;;;;;;2.53;2.33;;;28.80;56.00;;;;;;5014314;28;20072;-75
2022/09/10 10:14:38;;;;;;;4.18;1.83;;;28.60;55.70;;;;;;5013759;28;20421;-74
2022/09/10 10:17:32;;;;;;;5.25;2.33;;;28.70;55.80;;;;;;5013633;28;20117;-74
2022/09/10 10:20:13;;;;;;;1.75;1.35;;;28.80;55.00;;;;;;4972221;28;20134;-76
2022/09/10 10:22:44;;;;;;;2.10;1.20;;;28.70;54.80;;;;;;4971543;28;20546;-74
2022/09/10 10:25:40;;;;;;;3.70;1.88;;;28.70;56.80;;;;;;4970599;28;20133;-74
2022/09/10 10:28:24;;;;;;;5.03;2.50;;;28.80;56.90;;;;;;4955305;28;20193;-72
2022/09/10 10:30:53;;;;;;;3.47;2.40;;;28.70;54.20;;;;;;4971052;28;20046;-72
2022/09/10 10:33:26;;;;;;;5.38;2.50;;;28.70;53.90;;;;;;4971398;28;20034;-72
2022/09/10 10:36:06;;;;;;;3.55;2.20;;;28.70;53.60;;;;;;4954840;28;20097;-73
2022/09/10 10:38:39;;;;;;;6.65;2.58;;;28.70;53.50;;;;;;4971344;28;20055;-73
2022/09/10 10:41:23;;;;;;;4.90;2.17;;;28.80;53.20;;;;;;4969331;28;20039;-72
2022/09/10 10:44:18;;;;;;;4.50;3.28;;;28.70;53.10;;;;;;4971653;28;20058;-72
2022/09/10 10:47:10;;;;;;;2.88;1.92;;;28.70;51.90;;;;;;4913791;29;20052;-72
2022/09/10 10:49:55;;;;;;;4.07;2.05;;;28.70;51.90;;;;;;4913705;29;20032;-72
2022/09/10 10:52:32;;;;;;;2.83;1.75;;;28.50;50.60;;;;;;4913961;29;20048;-73
2022/09/10 10:55:25;;;;;;;4.25;2.33;;;28.70;52.30;;;;;;4913721;29;20168;-73
2022/09/10 10:58:05;;;;;;;5.05;2.25;;;28.50;51.50;;;;;;4946894;28;20051;-72
2022/09/10 11:00:50;;;;;;;2.92;1.73;;;28.50;52.80;;;;;;4952909;28;20067;-73
2022/09/10 11:03:28;;;;;;;2.28;2.08;;;28.50;53.00;;;;;;4952847;28;20042;-71
2022/09/10 11:06:03;;;;;;;5.70;2.78;;;28.40;51.80;;;;;;4952595;28;20043;-71
2022/09/10 11:08:35;;;;;;;4.72;2.47;;;28.50;53.00;;;;;;4920492;29;20050;-70
2022/09/10 11:11:15;;;;;;;3.17;2.27;;;28.50;53.10;;;;;;4952443;28;20579;-70
2022/09/10 11:14:01;;;;;;;9.27;2.60;;;28.60;51.80;;;;;;4952526;28;20384;-71
2022/09/10 11:16:53;;;;;;;4.18;2.33;;;28.60;52.10;;;;;;4950014;28;20051;-69
2022/09/10 11:19:34;;;;;;;2.38;1.77;;;28.40;52.30;;;;;;4910680;29;20068;-69
2022/09/10 11:22:09;;;;;;;1.83;1.30;;;28.50;53.10;;;;;;4896193;29;20700;-68
2022/09/10 11:24:49;;;;;;;3.65;1.88;;;28.40;53.30;;;;;;4932644;29;20048;-70
2022/09/10 11:27:21;;;;;;;2.97;2.03;;;28.40;53.10;;;;;;4933096;29;20131;-71
2022/09/10 11:29:51;;;;;;;2.75;2.00;;;28.40;53.30;;;;;;4933085;29;20052;-70
2022/09/10 11:32:33;;;;;;;1.52;1.42;;;28.30;53.40;;;;;;4932854;29;20051;-71
2022/09/10 11:35:22;;;;;;;3.58;2.10;;;28.50;53.60;;;;;;4932117;29;20040;-71
2022/09/10 11:38:02;;;;;;;4.10;1.73;;;28.40;53.60;;;;;;4894155;29;20044;-71
2022/09/10 11:40:51;;;;;;;2.00;1.80;;;28.50;53.60;;;;;;4898578;29;20040;-69
2022/09/10 11:43:44;;;;;;;3.65;2.50;;;28.50;53.90;;;;;;4894845;29;20040;-70
2022/09/10 11:46:22;;;;;;;2.25;1.95;;;28.50;53.60;;;;;;4894826;29;20051;-71
2022/09/10 11:49:02;;;;;;;3.65;1.98;;;28.50;53.90;;;;;;4894084;29;20641;-71
2022/09/10 11:51:35;;;;;;;2.22;1.73;;;28.50;53.80;;;;;;4894265;29;20052;-71
2022/09/10 11:54:06;;;;;;;1.88;1.77;;;28.50;53.90;;;;;;4894731;29;20447;-72
2022/09/10 11:56:58;;;;;;;4.30;2.42;;;28.50;53.90;;;;;;4928325;28;20475;-73
2022/09/10 11:59:54;;;;;;;1.90;1.75;;;28.50;53.90;;;;;;4973853;28;20078;-70
2022/09/10 12:02:47;;;;;;;4.35;1.92;;;28.60;53.90;;;;;;4989697;28;20476;-71
2022/09/10 12:05:52;;;;;;;4.90;2.03;;;28.50;54.00;;;;;;4989799;28;20036;-71
2022/09/10 12:08:37;;;;;;;2.45;2.25;;;28.40;54.30;;;;;;4988584;28;20038;-71
2022/09/10 12:11:41;;;;;;;3.00;2.25;;;28.40;54.50;;;;;;4987005;28;20065;-71
2022/09/10 12:14:15;;;;;;;4.55;2.42;;;28.30;54.90;;;;;;4996657;28;20252;-72
2022/09/10 12:16:50;;;;;;;2.17;1.98;;;28.30;54.40;;;;;;5030065;28;20474;-70
2022/09/10 12:19:23;;;;;;;2.05;1.25;;;28.30;54.50;;;;;;5031274;28;20038;-71
2022/09/10 12:21:51;;;;;;;;;;;28.20;54.70;;;;;;5031778;28;20112;-71
2022/09/10 12:24:25;;;;;;;3.75;2.03;;;28.30;54.50;;;;;;5031329;28;20509;-71
2022/09/10 12:26:53;;;;;;;7.53;2.40;;;28.40;54.00;;;;;;5030272;28;20134;-70
2022/09/10 12:29:35;;;;;;;2.65;2.42;;;28.40;54.20;;;;;;5031633;28;20031;-69
2022/09/10 12:32:08;;;;;;;3.05;1.58;;;28.40;54.10;;;;;;5045806;28;20479;-71
2022/09/10 12:34:34;;;;;;;;;;;28.30;54.40;;;;;;5014464;28;20493;-71
2022/09/10 12:37:00;;;;;;;4.50;2.28;;;28.30;54.40;;;;;;5011118;28;19932;-70
2022/09/10 12:39:27;;;;;;;3.70;2.05;;;28.30;54.50;;;;;;5011742;28;20551;-71
2022/09/10 12:41:56;;;;;;;6.75;2.10;;;28.40;54.20;;;;;;5012028;28;20459;-70
2022/09/10 12:44:28;;;;;;;4.72;1.70;;;28.40;54.20;;;;;;5011545;28;20038;-71
2022/09/10 12:47:12;;;;;;;1.98;1.45;;;28.30;54.60;;;;;;5011648;28;20030;-71
2022/09/10 12:49:59;;;;;;;5.30;2.00;;;28.40;54.70;;;;;;5011413;28;20030;-71
2022/09/10 12:52:34;;;;;;;3.28;1.50;;;28.40;54.70;;;;;;5011398;28;20042;-71
2022/09/10 12:55:39;;;;;;;2.83;1.02;;;28.30;54.60;;;;;;5011227;28;20042;-70
2022/09/10 12:58:21;;;;;;;1.25;1.13;;;28.40;54.90;;;;;;4991629;28;20046;-71
2022/09/10 13:00:47;;;;;;;2.28;2.00;;;28.40;55.00;;;;;;4990950;28;20100;-70
2022/09/10 13:03:16;;;;;;;1.98;1.60;;;28.40;55.00;;;;;;4991360;28;20038;-70
2022/09/10 13:05:46;;;;;;;1.27;1.23;;;28.40;55.10;;;;;;4990522;28;20031;-71
2022/09/10 13:08:15;;;;;;;4.82;1.67;;;28.50;55.30;;;;;;5004329;28;20110;-71
2022/09/10 13:10:45;;;;;;;2.13;1.48;;;28.30;55.30;;;;;;5010640;28;20030;-70
2022/09/10 13:13:33;;;;;;;1.63;1.52;;;28.30;55.80;;;;;;5010693;28;20033;-71
2022/09/10 13:16:00;;;;;;;1.63;1.52;;;28.40;55.90;;;;;;5009265;28;20398;-71